createdAt,value
2019-04-30T00:00:45.550Z,101742.69
2019-04-30T00:03:36.343Z,101739.70
2019-04-30T00:06:07.522Z,101738.11
2019-04-30T00:08:39.052Z,101734.25
2019-04-30T00:11:10.788Z,101735.63
2019-04-30T00:13:41.280Z,101729.06
2019-04-30T00:16:11.582Z,101728.32
2019-04-30T00:18:55.184Z,101731.48
2019-04-30T00:21:15.165Z,101734.64
2019-04-30T00:23:45.934Z,101725.84
2019-04-30T00:26:17.309Z,101718.77
2019-04-30T00:28:47.838Z,101720.14
2019-04-30T00:31:23.588Z,101725.09
2019-04-30T00:33:52.734Z,101717.21
2019-04-30T00:36:29.053Z,101717.30
2019-04-30T00:38:56.451Z,101711.61
2019-04-30T00:41:26.642Z,101713.85
2019-04-30T00:43:56.819Z,101708.30
2019-04-30T00:46:29.286Z,101710.70
2019-04-30T00:49:09.047Z,101710.16
2019-04-30T00:51:31.809Z,101705.72
2019-04-30T00:54:01.998Z,101703.31
2019-04-30T00:56:32.125Z,101701.25
2019-04-30T00:59:06.242Z,101702.90
2019-04-30T01:01:58.851Z,101694.42
2019-04-30T01:04:39.695Z,101694.47
2019-04-30T01:07:11.042Z,101698.50
2019-04-30T01:09:46.429Z,101700.75
2019-04-30T01:12:17.478Z,101702.07
2019-04-30T01:14:44.793Z,101694.23
2019-04-30T01:17:14.901Z,101697.17
2019-04-30T01:19:46.015Z,101697.08
2019-04-30T01:22:21.527Z,101697.63
2019-04-30T01:24:49.679Z,101694.64
2019-04-30T01:27:20.968Z,101692.94
2019-04-30T01:29:51.286Z,101693.02
2019-04-30T01:32:21.394Z,101689.20
2019-04-30T01:34:53.751Z,101688.78
2019-04-30T01:37:28.635Z,101690.16
2019-04-30T01:39:55.203Z,101688.88
2019-04-30T01:42:25.313Z,101694.31
2019-04-30T01:44:55.457Z,101691.73
2019-04-30T01:47:27.779Z,101684.63
2019-04-30T01:50:01.000Z,101674.45
2019-04-30T01:52:49.475Z,101673.18
2019-04-30T01:55:21.187Z,101672.34
2019-04-30T01:57:59.956Z,101669.69
2019-04-30T02:00:32.950Z,101662.13
2019-04-30T02:03:03.067Z,101664.34
2019-04-30T02:05:33.246Z,101668.32
2019-04-30T02:08:03.363Z,101662.09
2019-04-30T02:10:33.507Z,101662.05
2019-04-30T02:13:03.613Z,101661.13
2019-04-30T02:15:33.738Z,101663.70
2019-04-30T02:18:03.861Z,101652.62
2019-04-30T02:20:33.966Z,101648.13
2019-04-30T02:23:04.092Z,101652.12
2019-04-30T02:25:34.229Z,101644.14
2019-04-30T02:28:04.333Z,101648.55
2019-04-30T02:30:35.514Z,101648.55
2019-04-30T02:33:05.681Z,101643.19
2019-04-30T02:36:04.059Z,101639.12
2019-04-30T02:38:36.247Z,101642.15
2019-04-30T02:41:09.876Z,101636.38
2019-04-30T02:43:41.631Z,101643.48
2019-04-30T02:46:14.667Z,101636.05
2019-04-30T02:48:46.297Z,101631.73
2019-04-30T02:51:20.117Z,101632.52
2019-04-30T02:54:20.349Z,101637.75
2019-04-30T02:57:11.294Z,101630.10
2019-04-30T02:59:59.998Z,101635.83
2019-04-30T03:02:31.783Z,101631.84
2019-04-30T03:05:02.093Z,101635.79
2019-04-30T03:07:32.205Z,101625.75
2019-04-30T03:10:02.320Z,101626.86
2019-04-30T03:12:33.843Z,101623.37
2019-04-30T03:15:05.264Z,101625.16
2019-04-30T03:17:45.672Z,101622.23
2019-04-30T03:20:36.298Z,101612.73
2019-04-30T03:23:05.638Z,101607.33
2019-04-30T03:25:35.787Z,101607.52
2019-04-30T03:28:05.895Z,101605.59
2019-04-30T03:30:36.021Z,101604.06
2019-04-30T03:33:06.145Z,101598.47
2019-04-30T03:35:36.267Z,101594.50
2019-04-30T03:38:06.385Z,101594.41
2019-04-30T03:40:36.578Z,101600.08
2019-04-30T03:43:06.799Z,101597.99
2019-04-30T03:45:40.006Z,101606.35
2019-04-30T03:48:10.184Z,101608.29
2019-04-30T03:50:52.502Z,101607.83
2019-04-30T03:53:12.424Z,101584.19
2019-04-30T03:55:42.537Z,101594.92
2019-04-30T03:58:12.696Z,101591.34
2019-04-30T04:01:01.790Z,101596.66
2019-04-30T04:03:34.314Z,101589.39
2019-04-30T04:06:29.295Z,101591.03
2019-04-30T04:09:10.330Z,101585.40
2019-04-30T04:11:42.080Z,101591.95
2019-04-30T04:14:12.186Z,101490.83
2019-04-30T04:16:42.301Z,101592.84
2019-04-30T04:19:12.451Z,101596.48
2019-04-30T04:21:43.635Z,101601.48
2019-04-30T04:24:13.756Z,101596.76
2019-04-30T04:26:44.168Z,101594.31
2019-04-30T04:29:14.399Z,101589.04
2019-04-30T04:31:44.508Z,101586.37
2019-04-30T04:34:14.630Z,101587.78
2019-04-30T04:36:44.760Z,101588.29
2019-04-30T04:39:14.890Z,101587.99
2019-04-30T04:41:45.002Z,101572.34
2019-04-30T04:44:15.160Z,101570.03
2019-04-30T04:46:45.260Z,101567.94
2019-04-30T04:49:15.592Z,101566.28
2019-04-30T04:51:45.706Z,101561.75
2019-04-30T04:54:15.828Z,101564.02
2019-04-30T04:56:46.866Z,101558.50
2019-04-30T04:59:17.010Z,101551.02
2019-04-30T05:01:48.937Z,101556.33
2019-04-30T05:04:19.919Z,101548.34
2019-04-30T05:06:50.184Z,101552.02
2019-04-30T05:09:20.287Z,101548.16
2019-04-30T05:11:51.109Z,101545.23
2019-04-30T05:14:21.232Z,101543.63
2019-04-30T05:16:51.389Z,101547.64
2019-04-30T05:19:21.522Z,101542.41
2019-04-30T05:21:51.843Z,101533.12
2019-04-30T05:24:22.497Z,101536.47
2019-04-30T05:26:52.716Z,101531.73
2019-04-30T05:29:22.863Z,101535.47
2019-04-30T05:31:52.980Z,101523.84
2019-04-30T05:34:23.088Z,101524.00
2019-04-30T05:36:53.269Z,101525.00
2019-04-30T05:39:23.390Z,101513.49
2019-04-30T05:41:53.587Z,101510.47
2019-04-30T05:44:24.066Z,101515.30
2019-04-30T05:46:54.262Z,101520.00
2019-04-30T05:49:24.399Z,101517.64
2019-04-30T05:51:55.906Z,101505.80
2019-04-30T05:54:26.228Z,101495.77
2019-04-30T05:56:56.350Z,101509.73
2019-04-30T05:59:26.500Z,101507.23
2019-04-30T06:01:59.250Z,101508.77
2019-04-30T06:04:29.516Z,101513.17
2019-04-30T06:06:59.628Z,101508.77
2019-04-30T06:10:04.488Z,101499.31
2019-04-30T06:12:46.378Z,101503.98
2019-04-30T06:15:29.473Z,101503.48
2019-04-30T06:18:06.765Z,101502.72
2019-04-30T06:20:31.524Z,101493.02
2019-04-30T06:23:01.705Z,101499.17
2019-04-30T06:25:41.232Z,101492.95
2019-04-30T06:28:04.187Z,101490.52
2019-04-30T06:30:35.221Z,101493.52
2019-04-30T06:33:05.349Z,101496.19
2019-04-30T06:35:35.785Z,101491.09
2019-04-30T06:38:05.902Z,101487.89
2019-04-30T06:40:36.033Z,101482.69
2019-04-30T06:43:06.136Z,101493.45
2019-04-30T06:45:38.653Z,101486.84
2019-04-30T06:48:09.182Z,101485.67
2019-04-30T06:50:39.456Z,101480.42
2019-04-30T06:53:09.724Z,101480.42
2019-04-30T06:55:39.838Z,101476.45
2019-04-30T06:58:15.183Z,101470.80
2019-04-30T07:00:41.902Z,101473.11
2019-04-30T07:03:11.993Z,101461.90
2019-04-30T07:05:42.104Z,101453.14
2019-04-30T07:08:37.337Z,101454.63
2019-04-30T07:11:19.599Z,101453.99
2019-04-30T07:13:52.291Z,101451.92
2019-04-30T07:16:22.976Z,101447.77
2019-04-30T07:18:53.072Z,101444.91
2019-04-30T07:21:23.199Z,101447.77
2019-04-30T07:23:53.306Z,101445.75
2019-04-30T07:26:24.736Z,101444.63
2019-04-30T07:28:55.632Z,101440.66
2019-04-30T07:31:25.794Z,101436.67
2019-04-30T07:33:55.928Z,101435.92
2019-04-30T07:36:43.504Z,101438.98
2019-04-30T07:38:59.890Z,101433.70
2019-04-30T07:41:31.191Z,101439.86
2019-04-30T07:44:01.579Z,101436.39
2019-04-30T07:46:35.271Z,101427.14
2019-04-30T07:49:03.503Z,101429.80
2019-04-30T07:51:38.136Z,101417.53
2019-04-30T07:54:05.443Z,101422.30
2019-04-30T07:56:40.875Z,101417.61
2019-04-30T07:59:10.831Z,101414.06
2019-04-30T08:02:00.752Z,101412.64
2019-04-30T08:04:14.460Z,101413.43
2019-04-30T08:06:44.729Z,101413.81
2019-04-30T08:09:14.878Z,101410.74
2019-04-30T08:11:45.010Z,101412.08
2019-04-30T08:14:15.147Z,101413.59
2019-04-30T08:16:45.265Z,101420.00
2019-04-30T08:19:15.390Z,101415.11
2019-04-30T08:21:45.503Z,101415.44
2019-04-30T08:24:15.597Z,101410.53
2019-04-30T08:26:45.773Z,101411.61
2019-04-30T08:29:15.891Z,101414.22
2019-04-30T08:31:46.213Z,101414.18
2019-04-30T08:34:16.317Z,101420.35
2019-04-30T08:36:46.442Z,101417.09
2019-04-30T08:39:16.572Z,101420.53
2019-04-30T08:41:46.694Z,101416.70
2019-04-30T08:44:16.824Z,101409.86
2019-04-30T08:46:49.080Z,101414.59
2019-04-30T08:49:19.457Z,101404.00
2019-04-30T08:51:50.439Z,101405.55
2019-04-30T08:54:21.108Z,101407.59
2019-04-30T08:56:51.432Z,101412.91
2019-04-30T08:59:21.541Z,101414.64
2019-04-30T09:01:51.698Z,101410.80
2019-04-30T09:04:21.816Z,101413.58
2019-04-30T09:06:52.039Z,101411.19
2019-04-30T09:09:23.427Z,101412.23
2019-04-30T09:11:55.761Z,101412.91
2019-04-30T09:14:25.375Z,101409.45
2019-04-30T09:16:55.493Z,101410.43
2019-04-30T09:19:25.603Z,101404.84
2019-04-30T09:21:55.733Z,101410.02
2019-04-30T09:24:25.866Z,101408.88
2019-04-30T09:26:56.029Z,101409.44
2019-04-30T09:29:26.152Z,101411.38
2019-04-30T09:31:56.274Z,101411.36
2019-04-30T09:34:26.392Z,101407.05
2019-04-30T09:36:56.534Z,101406.17
2019-04-30T09:39:26.693Z,101404.24
2019-04-30T09:41:56.845Z,101395.58
2019-04-30T09:44:30.547Z,101395.75
2019-04-30T09:46:58.945Z,101391.49
2019-04-30T09:49:29.513Z,101388.67
2019-04-30T09:52:00.413Z,101389.17
2019-04-30T09:54:31.401Z,101379.12
2019-04-30T09:57:01.767Z,101374.97
2019-04-30T09:59:31.876Z,101377.31
2019-04-30T10:02:02.010Z,101369.84
2019-04-30T10:04:32.474Z,101370.27
2019-04-30T10:07:02.727Z,101363.18
2019-04-30T10:09:32.834Z,101364.41
2019-04-30T10:12:15.815Z,101367.49
2019-04-30T10:14:45.989Z,101363.72
2019-04-30T10:17:47.534Z,101367.36
2019-04-30T10:20:19.325Z,101316.09
2019-04-30T10:22:49.571Z,101357.67
2019-04-30T10:25:19.661Z,101358.66
2019-04-30T10:27:50.278Z,101365.80
2019-04-30T10:30:23.290Z,101358.34
2019-04-30T10:32:53.429Z,101358.13
2019-04-30T10:35:23.545Z,101352.27
2019-04-30T10:37:53.696Z,101351.11
2019-04-30T10:40:23.817Z,101355.78
2019-04-30T10:42:53.970Z,101357.75
2019-04-30T10:45:24.087Z,101356.63
2019-04-30T10:47:54.208Z,101356.87
2019-04-30T10:50:26.430Z,101348.36
2019-04-30T10:52:56.574Z,101342.70
2019-04-30T10:55:28.690Z,101342.73
2019-04-30T10:57:59.371Z,101342.08
2019-04-30T11:00:40.428Z,101336.11
2019-04-30T11:03:19.691Z,101330.95
2019-04-30T11:05:43.586Z,101333.47
2019-04-30T11:08:13.785Z,101335.60
2019-04-30T11:10:43.906Z,101328.17
2019-04-30T11:13:14.044Z,101320.75
2019-04-30T11:15:44.547Z,101316.16
2019-04-30T11:18:14.970Z,101323.64
2019-04-30T11:20:45.509Z,101314.79
2019-04-30T11:23:15.763Z,101313.41
2019-04-30T11:25:46.517Z,101307.27
2019-04-30T11:28:17.732Z,101306.86
2019-04-30T11:30:50.011Z,101298.30
2019-04-30T11:33:20.393Z,101300.12
2019-04-30T11:36:02.073Z,101304.93
2019-04-30T11:38:22.515Z,101295.42
2019-04-30T11:40:52.656Z,101284.97
2019-04-30T11:43:22.804Z,101286.80
2019-04-30T11:46:45.773Z,101287.69
2019-04-30T11:49:15.919Z,101284.71
2019-04-30T11:51:46.036Z,101271.75
2019-04-30T11:54:18.727Z,101273.72
2019-04-30T11:56:50.448Z,101263.83
2019-04-30T11:59:20.809Z,101262.08
2019-04-30T12:01:52.579Z,101253.87
2019-04-30T12:04:22.709Z,101256.13
2019-04-30T12:06:54.606Z,101254.52
2019-04-30T12:09:55.627Z,101259.00
2019-04-30T12:12:26.274Z,101257.27
2019-04-30T12:14:56.385Z,101256.95
2019-04-30T12:17:26.511Z,101250.19
2019-04-30T12:19:58.592Z,101245.94
2019-04-30T12:22:29.561Z,101242.12
2019-04-30T12:25:03.322Z,101241.08
2019-04-30T12:27:31.745Z,101240.86
2019-04-30T12:30:01.997Z,101237.27
2019-04-30T12:32:32.096Z,101231.47
2019-04-30T12:35:02.275Z,101229.25
2019-04-30T12:37:32.537Z,101221.43
2019-04-30T12:40:02.690Z,101221.81
2019-04-30T12:42:32.818Z,101212.70
2019-04-30T12:45:02.933Z,101209.84
2019-04-30T12:47:35.347Z,101199.70
2019-04-30T12:50:25.333Z,101201.02
2019-04-30T12:52:59.518Z,101195.55
2019-04-30T12:55:49.032Z,101197.88
2019-04-30T12:58:20.781Z,101189.85
2019-04-30T13:00:51.315Z,101191.25
2019-04-30T13:03:24.276Z,101183.24
2019-04-30T13:05:54.830Z,101180.45
2019-04-30T13:08:25.991Z,101178.92
2019-04-30T13:10:57.106Z,101170.67
2019-04-30T13:13:31.481Z,101167.88
2019-04-30T13:16:00.023Z,101169.75
2019-04-30T13:18:30.281Z,101170.20
2019-04-30T13:21:00.614Z,101171.59
2019-04-30T13:23:30.864Z,101162.66
2019-04-30T13:26:01.170Z,101156.08
2019-04-30T13:28:40.326Z,101155.32
2019-04-30T13:31:10.670Z,101145.66
2019-04-30T13:33:46.448Z,101147.98
2019-04-30T13:36:17.072Z,101140.97
2019-04-30T13:39:15.166Z,101143.62
2019-04-30T13:41:51.031Z,101137.92
2019-04-30T13:44:29.428Z,101138.13
2019-04-30T13:46:59.678Z,101130.16
2019-04-30T13:49:30.222Z,101127.18
2019-04-30T13:52:00.500Z,101120.77
2019-04-30T13:54:30.606Z,101126.99
2019-04-30T13:57:00.855Z,101120.77
2019-04-30T13:59:30.988Z,101116.89
2019-04-30T14:02:01.134Z,101113.83
2019-04-30T14:04:53.093Z,101113.02
2019-04-30T14:07:42.248Z,101117.52
2019-04-30T14:10:12.864Z,101102.67
2019-04-30T14:12:48.869Z,101100.30
2019-04-30T14:15:19.266Z,101103.47
2019-04-30T14:17:49.513Z,101104.49
2019-04-30T14:20:19.907Z,101099.34
2019-04-30T14:22:50.048Z,101102.03
2019-04-30T14:25:20.160Z,101095.41
2019-04-30T14:27:54.597Z,101088.34
2019-04-30T14:30:22.122Z,101091.84
2019-04-30T14:32:52.567Z,101084.91
2019-04-30T14:35:22.878Z,101085.39
2019-04-30T14:37:53.006Z,101083.02
2019-04-30T14:40:23.995Z,101077.44
2019-04-30T14:43:14.052Z,101076.38
2019-04-30T14:46:01.130Z,101074.42
2019-04-30T14:48:36.486Z,101073.45
2019-04-30T14:51:07.475Z,101069.43
2019-04-30T14:53:45.216Z,101057.45
2019-04-30T14:56:39.320Z,101049.09
2019-04-30T14:59:28.966Z,101050.07
2019-04-30T15:02:15.963Z,101049.56
2019-04-30T15:04:46.099Z,101042.91
2019-04-30T15:07:16.225Z,101039.45
2019-04-30T15:09:46.433Z,101037.69
2019-04-30T15:12:16.493Z,101044.90
2019-04-30T15:14:46.625Z,101040.41
2019-04-30T15:17:17.982Z,101046.41
2019-04-30T15:19:49.353Z,101046.84
2019-04-30T15:22:19.926Z,101033.56
2019-04-30T15:24:50.064Z,101041.56
2019-04-30T15:27:20.153Z,101036.94
2019-04-30T15:29:57.271Z,101035.80
2019-04-30T15:32:22.110Z,101033.69
2019-04-30T15:34:52.356Z,101043.99
2019-04-30T15:37:23.989Z,101032.48
2019-04-30T15:39:54.228Z,101039.75
2019-04-30T15:42:24.351Z,101034.97
2019-04-30T15:44:54.516Z,101037.77
2019-04-30T15:47:24.643Z,101038.02
2019-04-30T15:49:54.784Z,101040.48
2019-04-30T15:52:25.103Z,101038.20
2019-04-30T15:54:55.260Z,101035.98
2019-04-30T15:57:25.397Z,101034.02
2019-04-30T15:59:55.515Z,101028.00
2019-04-30T16:02:31.120Z,101033.66
2019-04-30T16:05:24.254Z,101005.74
2019-04-30T16:08:12.168Z,101017.65
2019-04-30T16:10:55.050Z,101013.94
2019-04-30T16:13:30.309Z,101013.45
2019-04-30T16:15:59.246Z,101009.27
2019-04-30T16:18:36.461Z,101009.75
2019-04-30T16:21:06.610Z,101006.56
2019-04-30T16:23:38.541Z,101009.34
2019-04-30T16:26:08.526Z,101000.73
2019-04-30T16:28:39.077Z,101001.84
2019-04-30T16:31:09.465Z,100999.89
2019-04-30T16:33:39.757Z,101000.75
2019-04-30T16:36:10.012Z,101000.38
2019-04-30T16:38:41.194Z,101002.08
2019-04-30T16:41:11.432Z,100997.44
2019-04-30T16:43:44.058Z,100997.05
2019-04-30T16:46:13.384Z,100997.16
2019-04-30T16:48:43.595Z,101001.69
2019-04-30T16:51:13.727Z,100988.83
2019-04-30T16:53:44.193Z,100991.86
2019-04-30T16:56:14.328Z,100986.61
2019-04-30T16:59:00.182Z,100990.00
2019-04-30T17:01:33.043Z,100990.63
2019-04-30T17:04:09.625Z,100989.51
2019-04-30T17:06:42.418Z,101000.81
2019-04-30T17:09:21.743Z,100992.41
2019-04-30T17:12:10.959Z,100994.61
2019-04-30T17:14:41.817Z,100987.16
2019-04-30T17:17:11.947Z,100987.34
2019-04-30T17:19:42.056Z,100994.06
2019-04-30T17:22:13.253Z,101001.11
2019-04-30T17:24:43.361Z,100994.31
2019-04-30T17:27:19.371Z,100996.26
2019-04-30T17:29:45.283Z,100987.54
2019-04-30T17:32:15.407Z,100986.53
2019-04-30T17:34:45.520Z,100988.73
2019-04-30T17:37:15.647Z,100984.88
2019-04-30T17:39:45.751Z,100980.99
2019-04-30T17:42:15.892Z,100983.46
2019-04-30T17:44:56.378Z,100977.85
2019-04-30T17:47:18.958Z,100979.50
2019-04-30T17:49:50.915Z,100987.05
2019-04-30T17:52:22.705Z,100976.83
2019-04-30T17:54:52.823Z,100978.59
2019-04-30T17:57:31.429Z,100978.94
2019-04-30T17:59:54.840Z,100982.75
2019-04-30T18:02:27.129Z,100982.44
2019-04-30T18:04:57.236Z,100988.27
2019-04-30T18:07:29.610Z,100985.92
2019-04-30T18:09:59.757Z,100991.36
2019-04-30T18:12:29.900Z,100992.59
2019-04-30T18:15:00.401Z,100979.31
2019-04-30T18:17:30.615Z,100974.95
2019-04-30T18:20:09.012Z,100978.59
2019-04-30T18:22:52.180Z,100977.27
2019-04-30T18:25:35.291Z,100980.33
2019-04-30T18:28:05.617Z,100974.85
2019-04-30T18:30:39.050Z,100973.41
2019-04-30T18:33:09.906Z,100978.45
2019-04-30T18:35:40.464Z,100972.58
2019-04-30T18:38:10.593Z,100972.27
2019-04-30T18:40:40.795Z,100970.47
2019-04-30T18:43:10.999Z,100973.77
2019-04-30T18:45:41.389Z,100969.88
2019-04-30T18:48:11.522Z,100975.38
2019-04-30T18:50:41.645Z,100971.80
2019-04-30T18:53:19.190Z,100968.73
2019-04-30T18:55:50.755Z,100970.07
2019-04-30T18:58:21.131Z,100970.20
2019-04-30T19:00:51.341Z,100965.89
2019-04-30T19:03:21.942Z,100967.02
2019-04-30T19:05:58.703Z,100968.48
2019-04-30T19:08:34.533Z,100966.17
2019-04-30T19:11:23.588Z,100963.48
2019-04-30T19:14:19.341Z,100963.20
2019-04-30T19:17:16.967Z,100960.89
2019-04-30T19:20:21.207Z,100960.19
2019-04-30T19:22:51.322Z,100961.08
2019-04-30T19:25:22.565Z,100955.43
2019-04-30T19:27:52.697Z,100959.56
2019-04-30T19:30:22.933Z,100957.16
2019-04-30T19:32:53.124Z,100959.05
2019-04-30T19:35:23.284Z,100952.70
2019-04-30T19:37:53.408Z,100947.19
2019-04-30T19:40:23.625Z,100959.67
2019-04-30T19:42:53.761Z,100949.13
2019-04-30T19:45:23.890Z,100945.13
2019-04-30T19:47:53.994Z,100946.57
2019-04-30T19:50:24.125Z,100941.50
2019-04-30T19:52:54.229Z,100938.55
2019-04-30T19:55:24.349Z,100934.06
2019-04-30T19:57:54.452Z,100935.95
2019-04-30T20:00:24.624Z,100932.13
2019-04-30T20:02:57.252Z,100929.95
2019-04-30T20:05:28.585Z,100933.31
2019-04-30T20:07:59.227Z,100923.76
2019-04-30T20:10:29.513Z,100920.80
2019-04-30T20:12:59.634Z,100921.45
2019-04-30T20:15:29.953Z,100907.64
2019-04-30T20:18:01.063Z,100915.80
2019-04-30T20:20:31.352Z,100904.21
2019-04-30T20:23:01.455Z,100906.90
2019-04-30T20:25:31.629Z,100907.48
2019-04-30T20:28:01.764Z,100905.75
2019-04-30T20:30:31.893Z,100899.83
2019-04-30T20:33:02.005Z,100904.87
2019-04-30T20:35:32.121Z,100893.00
2019-04-30T20:38:33.389Z,100891.47
2019-04-30T20:41:04.030Z,100886.84
2019-04-30T20:43:34.139Z,100887.16
2019-04-30T20:46:04.549Z,100885.35
2019-04-30T20:48:34.650Z,100880.25
2019-04-30T20:51:04.782Z,100877.28
2019-04-30T20:53:34.892Z,100874.86
2019-04-30T20:56:05.044Z,100878.11
2019-04-30T20:58:35.165Z,100867.96
2019-04-30T21:01:06.855Z,100875.62
2019-04-30T21:03:39.391Z,100878.01
2019-04-30T21:06:09.032Z,100875.61
2019-04-30T21:08:39.118Z,100858.91
2019-04-30T21:11:09.464Z,100859.25
2019-04-30T21:13:39.551Z,100858.38
2019-04-30T21:16:09.669Z,100857.52
2019-04-30T21:18:39.829Z,100850.00
2019-04-30T21:21:09.945Z,100851.41
2019-04-30T21:23:40.067Z,100844.05
2019-04-30T21:26:10.198Z,100846.91
2019-04-30T21:28:40.319Z,100839.86
2019-04-30T21:31:28.421Z,100836.17
2019-04-30T21:34:05.488Z,100836.08
2019-04-30T21:36:35.610Z,100832.74
2019-04-30T21:39:08.993Z,100831.75
2019-04-30T21:41:39.610Z,100826.87
2019-04-30T21:44:09.961Z,100826.75
2019-04-30T21:46:40.079Z,100816.70
2019-04-30T21:49:10.189Z,100817.27
2019-04-30T21:51:40.318Z,100815.21
2019-04-30T21:54:10.448Z,100810.81
2019-04-30T21:56:40.559Z,100812.20
2019-04-30T21:59:23.546Z,100810.52
2019-04-30T22:01:42.868Z,100813.37
2019-04-30T22:04:12.991Z,100806.94
2019-04-30T22:06:43.391Z,100806.55
2019-04-30T22:09:13.781Z,100802.66
2019-04-30T22:11:45.532Z,100803.00
2019-04-30T22:14:15.836Z,100801.36
2019-04-30T22:16:45.961Z,100794.90
2019-04-30T22:19:16.078Z,100795.06
2019-04-30T22:21:46.216Z,100786.13
2019-04-30T22:24:16.319Z,100780.27
2019-04-30T22:26:46.437Z,100779.55
2019-04-30T22:29:16.552Z,100780.58
2019-04-30T22:31:46.655Z,100770.45
2019-04-30T22:34:16.753Z,100766.84
2019-04-30T22:36:50.003Z,100756.86
2019-04-30T22:39:39.508Z,100757.75
2019-04-30T22:42:39.747Z,100759.39
2019-04-30T22:45:23.992Z,100758.55
2019-04-30T22:47:54.098Z,100753.92
2019-04-30T22:50:24.223Z,100741.69
2019-04-30T22:52:54.369Z,100740.34
2019-04-30T22:55:24.490Z,100733.92
2019-04-30T22:57:54.620Z,100735.81
2019-04-30T23:00:45.063Z,100731.58
2019-04-30T23:03:28.458Z,100726.95
2019-04-30T23:05:58.664Z,100719.26
2019-04-30T23:08:28.770Z,100715.09
2019-04-30T23:10:58.887Z,100713.92
2019-04-30T23:13:29.122Z,100711.81
2019-04-30T23:15:59.241Z,100702.16
2019-04-30T23:18:32.100Z,100700.09
2019-04-30T23:21:01.191Z,100690.92
2019-04-30T23:23:31.307Z,100689.91
2019-04-30T23:26:01.438Z,100687.87
2019-04-30T23:28:31.558Z,100680.98
2019-04-30T23:31:01.719Z,100679.09
2019-04-30T23:33:32.096Z,100672.35
2019-04-30T23:36:02.218Z,100663.86
2019-04-30T23:38:32.358Z,100662.13
2019-04-30T23:41:02.455Z,100661.19
2019-04-30T23:43:32.595Z,100655.08
2019-04-30T23:46:02.743Z,100654.45
2019-04-30T23:48:32.912Z,100645.83
2019-04-30T23:51:03.034Z,100644.55
2019-04-30T23:53:33.189Z,100642.90
2019-04-30T23:56:03.295Z,100637.53
2019-04-30T23:58:33.430Z,100639.18
